Time;durP1;ratioP1;P1;durP2;ratioP2;P2;SDS_P1;SDS_P2;PMS_P1;PMS_P2;Temp;Humidity;BMP_temperature;BMP_pressure;BME280_temperature;BME280_humidity;BME280_pressure;Samples;Min_cycle;Max_cycle;Signal;HPM_P1;HPM_P2
2022/11/23 00:01:37;;;;;;;86.27;39.20;;;;;;;0.44;89.05;99519.05;1734936;82;21528;-78
2022/11/23 00:04:11;;;;;;;82.07;37.87;;;;;;;0.46;89.09;99512.56;1736352;82;21038;-78
2022/11/23 00:06:39;;;;;;;84.07;38.40;;;;;;;0.49;88.90;99522.84;1737282;82;20986;-79
2022/11/23 00:09:06;;;;;;;84.17;37.37;;;;;;;0.45;88.83;99521.19;1737458;81;21252;-78
2022/11/23 00:11:34;;;;;;;81.80;38.03;;;;;;;0.47;88.99;99525.02;1737642;81;21162;-80
2022/11/23 00:14:02;;;;;;;83.87;38.37;;;;;;;0.50;89.02;99528.44;1737426;81;21019;-78
2022/11/23 00:16:33;;;;;;;77.83;37.43;;;;;;;0.52;89.08;99526.68;1736755;82;21564;-77
2022/11/23 00:19:01;;;;;;;;;;;;;;;0.51;88.76;99521.55;1738690;82;21042;-79
2022/11/23 00:21:31;;;;;;;92.97;39.57;;;;;;;0.50;88.98;99522.00;1737259;82;20527;-80
2022/11/23 00:23:58;;;;;;;86.25;39.92;;;;;;;0.48;88.93;99522.44;1737726;82;27036;-77
2022/11/23 00:26:26;;;;;;;86.60;39.50;;;;;;;0.51;88.99;99527.56;1737334;82;20988;-77
2022/11/23 00:28:52;;;;;;;75.13;35.43;;;;;;;0.49;88.83;99527.16;1737261;82;21079;-79
2022/11/23 00:31:20;;;;;;;76.07;35.97;;;;;;;0.48;88.78;99525.45;1737538;82;21071;-78
2022/11/23 00:33:53;;;;;;;85.23;36.90;;;;;;;0.45;89.00;99532.78;1737586;82;21066;-77
2022/11/23 00:36:24;;;;;;;77.70;36.93;;;;;;;0.44;89.02;99530.64;1734275;82;21981;-80
2022/11/23 00:38:56;;;;;;;;;;;;;;;0.46;89.15;99534.48;1737066;81;21031;-78
2022/11/23 00:41:26;;;;;;;78.33;37.17;;;;;;;0.48;89.35;99528.03;1740955;80;20474;-80
2022/11/23 00:43:53;;;;;;;83.53;39.13;;;;;;;0.48;89.34;99529.33;1732141;81;21007;-78
2022/11/23 00:46:26;;;;;;;81.67;36.30;;;;;;;0.49;89.66;99533.60;1731926;80;21311;-79
2022/11/23 00:48:56;;;;;;;72.23;36.03;;;;;;;0.52;89.96;99534.86;1758521;80;21128;-79
2022/11/23 00:51:29;;;;;;;72.57;35.83;;;;;;;0.57;90.36;99525.35;1758148;81;21018;-78
2022/11/23 00:53:56;;;;;;;70.00;34.30;;;;;;;0.62;90.33;99532.17;1758376;81;21042;-78
2022/11/23 00:56:26;;;;;;;69.93;33.83;;;;;;;0.67;90.56;99532.12;1757659;80;21038;-78
2022/11/23 00:58:55;;;;;;;72.53;35.77;;;;;;;0.68;90.44;99529.96;1758397;81;21532;-78
2022/11/23 01:01:32;;;;;;;72.33;36.53;;;;;;;0.75;90.75;99534.19;1758058;81;21114;-78
2022/11/23 01:04:01;;;;;;;69.30;35.13;;;;;;;0.80;90.74;99523.36;1758068;81;21019;-79
2022/11/23 01:06:35;;;;;;;70.83;35.33;;;;;;;0.75;90.10;99529.45;1757936;81;21038;-77
2022/11/23 01:09:12;;;;;;;76.30;37.07;;;;;;;0.70;90.02;99536.41;1741103;80;21034;-78
2022/11/23 01:11:40;;;;;;;78.70;38.00;;;;;;;0.67;89.98;99543.73;1758608;80;21034;-77
2022/11/23 01:14:07;;;;;;;82.37;39.07;;;;;;;0.58;89.85;99539.94;1758078;81;21209;-78
2022/11/23 01:16:38;;;;;;;68.40;35.27;;;;;;;0.60;90.19;99535.63;1758041;81;21019;-81
2022/11/23 01:19:10;;;;;;;73.20;37.40;;;;;;;0.59;90.22;99543.81;1758048;80;21070;-77
2022/11/23 01:21:37;;;;;;;61.90;33.97;;;;;;;0.55;90.06;99547.27;1726274;83;21090;-78
2022/11/23 01:24:10;;;;;;;77.57;36.97;;;;;;;0.51;90.07;99539.16;1746939;81;21011;-78
2022/11/23 01:26:40;;;;;;;70.90;37.20;;;;;;;0.55;90.65;99540.83;1757906;81;21178;-79
2022/11/23 01:29:07;;;;;;;70.90;35.73;;;;;;;0.59;90.74;99546.83;1726261;83;21034;-77
2022/11/23 01:31:34;;;;;;;72.90;37.13;;;;;;;0.64;91.06;99547.64;1737549;81;20984;-78
2022/11/23 01:34:03;;;;;;;78.20;41.97;;;;;;;0.71;91.31;99551.00;1730540;81;21024;-78
2022/11/23 01:36:33;;;;;;;69.47;37.23;;;;;;;0.75;91.26;99554.83;1740339;81;21086;-78
2022/11/23 01:39:01;;;;;;;63.70;35.13;;;;;;;0.78;91.02;99560.39;1734712;82;21116;-78
2022/11/23 01:41:35;;;;;;;67.00;36.60;;;;;;;0.76;90.94;99556.97;1758011;81;21026;-78
2022/11/23 01:44:27;;;;;;;67.10;35.40;;;;;;;0.85;91.67;99549.97;1736829;80;21054;-78
2022/11/23 01:46:57;;;;;;;64.40;34.63;;;;;;;0.95;91.63;99553.75;1721366;82;21227;-79
2022/11/23 01:49:27;;;;;;;65.90;35.93;;;;;;;1.05;91.81;99546.30;1740704;82;21306;-78
2022/11/23 01:51:58;;;;;;;64.58;36.85;;;;;;;1.11;91.82;99540.64;1735559;82;21797;-78
2022/11/23 01:54:32;;;;;;;65.47;36.00;;;;;;;1.16;91.62;99544.44;1735027;82;21023;-78
2022/11/23 01:57:05;;;;;;;65.70;35.97;;;;;;;1.18;91.38;99549.59;1757736;80;21042;-78
2022/11/23 01:59:34;;;;;;;69.37;35.83;;;;;;;1.16;91.18;99547.02;1758193;81;21442;-78
2022/11/23 02:02:01;;;;;;;67.73;36.53;;;;;;;1.19;91.38;99556.45;1746478;81;21075;-78
2022/11/23 02:04:32;;;;;;;65.87;36.23;;;;;;;1.21;91.40;99550.40;1757673;81;21145;-81
2022/11/23 02:07:02;;;;;;;67.27;36.63;;;;;;;1.21;91.02;99546.97;1726251;83;21483;-81
2022/11/23 02:09:32;;;;;;;62.97;35.20;;;;;;;1.22;91.13;99548.66;1737320;81;21024;-78
2022/11/23 02:12:00;;;;;;;66.53;36.35;;;;;;;1.23;91.02;99551.69;1758465;80;21045;-79
2022/11/23 02:14:28;;;;;;;64.77;35.03;;;;;;;1.21;90.90;99554.27;1758420;81;21555;-79
2022/11/23 02:17:00;;;;;;;65.90;34.47;;;;;;;1.18;90.53;99551.73;1746605;80;21527;-78
2022/11/23 02:19:35;;;;;;;65.30;35.30;;;;;;;1.15;90.54;99551.77;1713140;81;21086;-81
2022/11/23 02:22:07;;;;;;;65.60;35.63;;;;;;;1.14;90.79;99551.37;1704711;81;21056;-77
2022/11/23 02:24:39;;;;;;;63.37;34.57;;;;;;;1.11;90.67;99545.80;1740375;82;21051;-78
2022/11/23 02:27:07;;;;;;;62.93;33.90;;;;;;;1.11;90.86;99553.55;1740417;81;21027;-78
2022/11/23 02:29:34;;;;;;;60.63;34.67;;;;;;;1.19;91.26;99553.88;1740439;81;21146;-77
2022/11/23 02:32:02;;;;;;;62.60;33.70;;;;;;;1.22;91.31;99551.25;1740310;82;21047;-79
2022/11/23 02:34:29;;;;;;;60.90;34.07;;;;;;;1.27;91.44;99557.21;1740263;82;21608;-81
2022/11/23 02:36:57;;;;;;;58.73;34.10;;;;;;;1.32;91.38;99556.72;1739762;81;21522;-78
2022/11/23 02:39:32;;;;;;;58.53;32.97;;;;;;;1.34;91.32;99553.69;1740334;81;21524;-77
2022/11/23 02:42:00;;;;;;;60.43;33.57;;;;;;;1.34;91.22;99561.00;1740186;81;22135;-79
2022/11/23 02:44:59;;;;;;;58.73;33.37;;;;;;;1.36;91.14;99557.12;1733814;81;21480;-79
2022/11/23 02:47:26;;;;;;;69.17;37.30;;;;;;;1.40;91.42;99557.48;1756732;81;22074;-77
2022/11/23 02:49:53;;;;;;;66.70;36.03;;;;;;;1.48;91.70;99555.64;1740570;80;21493;-77
2022/11/23 02:52:20;;;;;;;63.77;33.47;;;;;;;1.53;91.61;99548.70;1723458;82;21027;-77
2022/11/23 02:54:47;;;;;;;59.17;32.70;;;;;;;1.56;91.45;99548.65;1727173;82;21135;-77
2022/11/23 02:57:14;;;;;;;63.10;32.60;;;;;;;1.56;91.17;99543.92;1729316;82;21027;-78
2022/11/23 02:59:43;;;;;;;57.50;32.80;;;;;;;1.55;91.17;99545.66;1718168;82;20943;-77
2022/11/23 03:02:11;;;;;;;54.97;30.93;;;;;;;1.60;91.30;99546.02;1729690;82;21055;-78
2022/11/23 03:04:38;;;;;;;57.73;32.93;;;;;;;1.63;91.24;99550.70;1719583;82;21070;-77
2022/11/23 03:07:05;;;;;;;58.97;32.60;;;;;;;1.67;91.35;99547.20;1720218;82;21506;-80
2022/11/23 03:09:32;;;;;;;57.23;32.43;;;;;;;1.66;91.01;99552.37;1729663;82;21067;-78
2022/11/23 03:12:00;;;;;;;60.20;33.37;;;;;;;1.66;91.11;99551.09;1729675;82;20944;-77
2022/11/23 03:14:28;;;;;;;61.87;33.57;;;;;;;1.69;91.12;99547.17;1730034;82;21051;-77
2022/11/23 03:17:01;;;;;;;63.47;33.57;;;;;;;1.71;91.24;99555.31;1729733;82;21051;-77
2022/11/23 03:19:30;;;;;;;57.57;31.77;;;;;;;1.74;91.19;99557.00;1729983;82;21919;-81
2022/11/23 03:21:57;;;;;;;55.33;32.63;;;;;;;1.75;91.23;99560.02;1729701;82;21082;-77
2022/11/23 03:24:24;;;;;;;65.40;35.00;;;;;;;1.77;91.10;99568.58;1725985;82;21012;-78
2022/11/23 03:26:52;;;;;;;55.20;31.07;;;;;;;1.78;91.11;99562.55;1729118;82;21035;-81
2022/11/23 03:29:24;;;;;;;60.93;32.87;;;;;;;1.78;91.18;99563.41;1730003;82;21835;-80
2022/11/23 03:31:51;;;;;;;62.87;34.57;;;;;;;1.83;91.44;99562.05;1729859;82;22612;-78
2022/11/23 03:34:19;;;;;;;63.73;36.15;;;;;;;1.86;91.18;99555.95;1729983;82;21048;-77
2022/11/23 03:36:47;;;;;;;65.43;34.33;;;;;;;1.78;90.80;99550.48;1721701;82;21461;-79
2022/11/23 03:39:14;;;;;;;60.80;34.70;;;;;;;1.78;91.05;99546.61;1716936;82;21031;-77
2022/11/23 03:41:53;;;;;;;59.23;33.50;;;;;;;1.82;91.31;99541.39;1717552;82;21115;-77
2022/11/23 03:44:22;;;;;;;62.05;34.53;;;;;;;1.82;91.13;99547.85;1729431;82;21951;-78
2022/11/23 03:46:49;;;;;;;60.30;34.20;;;;;;;1.78;91.02;99540.16;1716015;82;21087;-77
2022/11/23 03:49:16;;;;;;;58.47;33.23;;;;;;;1.79;91.21;99543.14;1720401;82;21067;-80
2022/11/23 03:51:43;;;;;;;64.30;34.60;;;;;;;1.84;91.42;99553.41;1720741;83;21024;-77
2022/11/23 03:54:10;;;;;;;66.60;36.97;;;;;;;1.87;91.36;99552.52;1707272;83;21032;-78
2022/11/23 03:56:38;;;;;;;67.67;36.27;;;;;;;1.86;91.33;99552.08;1720464;83;21144;-76
2022/11/23 03:59:05;;;;;;;64.90;36.83;;;;;;;1.86;91.31;99545.20;1709006;83;21539;-78
2022/11/23 04:01:32;;;;;;;63.57;35.97;;;;;;;1.91;91.60;99551.16;1692125;83;21032;-78
2022/11/23 04:04:01;;;;;;;71.80;37.37;;;;;;;1.97;91.63;99548.48;1692452;82;21071;-77
2022/11/23 04:06:46;;;;;;;61.27;34.90;;;;;;;1.95;91.17;99548.94;1720563;83;21316;-77
2022/11/23 04:09:21;;;;;;;68.43;36.13;;;;;;;1.95;91.32;99546.80;1720870;82;21136;-78
2022/11/23 04:11:58;;;;;;;67.03;35.77;;;;;;;1.98;91.45;99545.45;1714421;82;21056;-77
2022/11/23 04:14:25;;;;;;;64.33;35.67;;;;;;;1.99;91.32;99539.39;1721026;82;21040;-79
2022/11/23 04:16:52;;;;;;;63.03;35.20;;;;;;;2.00;91.41;99537.24;1720697;82;21028;-79
2022/11/23 04:19:20;;;;;;;61.47;34.50;;;;;;;2.04;91.34;99540.62;1720920;83;21027;-78
2022/11/23 04:21:47;;;;;;;62.73;33.23;;;;;;;2.00;90.92;99541.97;1720910;82;21126;-77
2022/11/23 04:24:14;;;;;;;58.77;32.83;;;;;;;1.93;90.66;99548.54;1720785;82;21020;-78
2022/11/23 04:26:42;;;;;;;64.53;36.00;;;;;;;1.93;90.88;99549.39;1703431;82;21024;-77
2022/11/23 04:29:10;;;;;;;61.47;34.63;;;;;;;1.93;90.86;99545.51;1720620;83;21048;-79
2022/11/23 04:31:38;;;;;;;59.50;33.50;;;;;;;1.87;90.39;99548.20;1720856;82;22737;-78
2022/11/23 04:34:10;;;;;;;63.20;33.70;;;;;;;1.82;90.59;99555.61;1721159;82;21176;-79
2022/11/23 04:36:38;;;;;;;62.73;34.23;;;;;;;1.84;90.91;99556.00;1720699;82;21019;-78
2022/11/23 04:39:06;;;;;;;58.47;32.80;;;;;;;1.87;91.02;99556.39;1721056;82;21501;-79
2022/11/23 04:41:38;;;;;;;59.90;32.33;;;;;;;1.87;90.89;99559.83;1721175;82;21036;-80
2022/11/23 04:44:06;;;;;;;58.93;31.73;;;;;;;1.86;90.66;99563.70;1734638;81;21043;-78
2022/11/23 04:46:34;;;;;;;54.00;32.07;;;;;;;1.80;90.29;99567.23;1723539;81;21297;-79
2022/11/23 04:49:03;;;;;;;64.07;33.40;;;;;;;1.75;90.32;99569.06;1734918;81;21027;-78
2022/11/23 04:51:30;;;;;;;63.13;35.37;;;;;;;1.74;90.52;99575.09;1755504;81;21042;-78
2022/11/23 04:53:57;;;;;;;57.97;34.07;;;;;;;1.76;90.87;99566.88;1754045;81;21446;-81
2022/11/23 04:56:26;;;;;;;63.60;34.00;;;;;;;1.78;90.99;99567.28;1754117;81;21096;-80
2022/11/23 04:58:53;;;;;;;65.07;36.67;;;;;;;1.79;90.78;99562.52;1754063;81;22177;-78
2022/11/23 05:01:20;;;;;;;63.90;35.03;;;;;;;1.81;90.83;99571.99;1750068;81;21529;-78
2022/11/23 05:03:48;;;;;;;59.00;34.97;;;;;;;1.81;90.91;99574.13;1703835;82;21513;-78
2022/11/23 05:06:16;;;;;;;65.33;34.50;;;;;;;1.82;90.93;99577.13;1732587;82;21601;-77
2022/11/23 05:08:43;;;;;;;65.77;35.63;;;;;;;1.79;90.85;99572.00;1740799;81;21529;-78
2022/11/23 05:11:18;;;;;;;64.67;36.07;;;;;;;1.82;91.13;99566.78;1722397;82;21134;-78
2022/11/23 05:13:47;;;;;;;64.07;35.37;;;;;;;1.85;91.09;99570.61;1753961;81;21031;-78
2022/11/23 05:16:15;;;;;;;61.77;34.50;;;;;;;1.87;91.21;99571.89;1753797;81;21160;-78
2022/11/23 05:18:43;;;;;;;64.00;36.30;;;;;;;1.88;91.15;99565.84;1753309;81;21038;-82
2022/11/23 05:21:11;;;;;;;64.03;34.90;;;;;;;1.91;91.25;99570.95;1754383;81;21051;-78
2022/11/23 05:23:39;;;;;;;60.77;33.77;;;;;;;1.92;91.27;99570.10;1754086;81;21108;-78
2022/11/23 05:26:07;;;;;;;68.43;39.03;;;;;;;1.92;90.85;99570.10;1754258;81;21026;-78
2022/11/23 05:28:36;;;;;;;63.87;37.57;;;;;;;1.91;90.91;99573.55;1754094;81;21018;-78
2022/11/23 05:31:03;;;;;;;66.33;37.57;;;;;;;1.89;90.83;99569.70;1730788;81;21418;-78
2022/11/23 05:33:31;;;;;;;63.03;34.07;;;;;;;1.91;90.93;99573.55;1746884;81;21472;-79
2022/11/23 05:35:58;;;;;;;58.23;34.47;;;;;;;1.91;90.76;99573.55;1722669;82;21228;-78
2022/11/23 05:38:27;;;;;;;65.23;33.93;;;;;;;1.91;90.93;99573.13;1720979;82;21055;-80
2022/11/23 05:40:56;;;;;;;61.53;33.30;;;;;;;1.92;90.94;99570.95;1732377;82;21461;-78
2022/11/23 05:43:23;;;;;;;60.67;34.43;;;;;;;1.92;90.92;99568.36;1733342;82;21011;-81
2022/11/23 05:45:51;;;;;;;57.77;33.47;;;;;;;1.94;90.97;99571.79;1720552;82;21066;-79
2022/11/23 05:48:19;;;;;;;55.97;32.57;;;;;;;1.95;90.77;99573.93;1712315;82;21577;-78
2022/11/23 05:50:51;;;;;;;55.53;31.93;;;;;;;1.92;90.66;99568.36;1735966;82;21023;-79
2022/11/23 05:53:26;;;;;;;58.70;32.70;;;;;;;1.91;90.56;99569.67;1737194;81;21000;-76
2022/11/23 05:56:01;;;;;;;59.70;32.43;;;;;;;1.90;90.57;99571.84;1735026;80;21085;-77
2022/11/23 05:58:29;;;;;;;60.60;32.97;;;;;;;1.88;90.55;99568.42;1736071;80;21260;-79
2022/11/23 06:01:00;;;;;;;54.47;32.73;;;;;;;1.86;90.59;99568.88;1737341;82;21782;-77
2022/11/23 06:03:29;;;;;;;61.83;34.87;;;;;;;1.85;90.51;99576.23;1733519;80;21030;-77
2022/11/23 06:05:56;;;;;;;57.43;33.27;;;;;;;1.81;90.33;99579.30;1720593;82;21050;-77
2022/11/23 06:08:25;;;;;;;60.40;34.33;;;;;;;1.79;90.49;99578.46;1736739;82;21035;-79
2022/11/23 06:10:52;;;;;;;59.23;33.17;;;;;;;1.76;90.42;99578.06;1737524;80;21293;-77
2022/11/23 06:13:19;;;;;;;56.20;33.03;;;;;;;1.76;90.49;99580.65;1737683;82;21115;-76
2022/11/23 06:15:46;;;;;;;56.43;32.63;;;;;;;1.75;90.57;99584.13;1736786;80;21506;-80
2022/11/23 06:18:17;;;;;;;57.67;32.80;;;;;;;1.73;90.46;99586.30;1737462;80;21501;-77
2022/11/23 06:20:45;;;;;;;58.20;32.65;;;;;;;1.71;90.57;99582.88;1736842;80;21023;-77
2022/11/23 06:23:12;;;;;;;58.60;32.50;;;;;;;1.74;90.82;99582.39;1734515;82;21022;-77
2022/11/23 06:25:40;;;;;;;57.13;32.33;;;;;;;1.76;90.84;99586.27;1732959;80;21135;-78
2022/11/23 06:28:09;;;;;;;59.70;32.23;;;;;;;1.77;90.70;99585.38;1733831;80;21082;-78
2022/11/23 06:30:40;;;;;;;58.07;33.20;;;;;;;1.74;90.48;99591.88;1737514;82;21039;-76
2022/11/23 06:33:08;;;;;;;78.40;41.87;;;;;;;1.74;90.49;99593.17;1737426;82;21093;-80
2022/11/23 06:35:40;;;;;;;67.43;37.03;;;;;;;1.73;90.42;99595.34;1736795;80;21015;-78
2022/11/23 06:38:07;;;;;;;62.93;35.33;;;;;;;1.71;90.48;99597.09;1737370;82;21134;-77
2022/11/23 06:40:35;;;;;;;57.57;34.40;;;;;;;1.71;90.55;99595.36;1737263;80;21007;-77
2022/11/23 06:43:03;;;;;;;61.13;33.30;;;;;;;1.72;90.40;99593.66;1735898;80;21472;-77
2022/11/23 06:45:31;;;;;;;57.57;32.47;;;;;;;1.64;90.13;99600.21;1732613;80;21039;-79
2022/11/23 06:48:00;;;;;;;58.67;32.97;;;;;;;1.61;90.13;99600.66;1733599;82;21007;-77
2022/11/23 06:50:27;;;;;;;59.30;33.37;;;;;;;1.59;90.39;99603.28;1735654;80;21520;-80
2022/11/23 06:52:56;;;;;;;55.03;31.60;;;;;;;1.62;90.57;99600.66;1755965;81;21030;-81
2022/11/23 06:55:25;;;;;;;62.75;33.63;;;;;;;1.64;90.63;99607.11;1729858;81;21019;-80
2022/11/23 06:57:53;;;;;;;57.30;31.80;;;;;;;1.67;90.77;99605.33;1744394;81;21023;-80
2022/11/23 07:00:20;;;;;;;52.07;31.87;;;;;;;1.71;90.84;99604.40;1734094;82;21457;-78
2022/11/23 07:02:52;;;;;;;55.23;31.23;;;;;;;1.76;90.87;99605.64;1724925;81;21100;-88
2022/11/23 07:05:22;;;;;;;54.57;30.90;;;;;;;1.81;90.84;99607.72;1740913;81;21047;-77
2022/11/23 07:07:49;;;;;;;58.00;32.10;;;;;;;1.80;90.49;99612.45;1731476;81;21438;-79
2022/11/23 07:10:19;;;;;;;56.80;32.53;;;;;;;1.84;90.83;99612.00;1727303;82;21509;-79
2022/11/23 07:12:48;;;;;;;56.40;31.43;;;;;;;1.88;90.87;99615.78;1731971;82;21062;-76
2022/11/23 07:15:16;;;;;;;57.47;32.73;;;;;;;1.93;90.94;99617.02;1756320;81;21935;-75
2022/11/23 07:17:44;;;;;;;53.27;30.90;;;;;;;1.99;90.96;99620.80;1731013;81;20936;-76
2022/11/23 07:20:12;;;;;;;50.57;31.13;;;;;;;1.98;90.59;99623.83;1741690;81;21032;-75
2022/11/23 07:22:39;;;;;;;51.67;30.17;;;;;;;2.00;90.82;99629.84;1730271;82;21027;-76
2022/11/23 07:25:08;;;;;;;59.17;31.83;;;;;;;2.05;90.71;99631.49;1730643;82;21092;-77
2022/11/23 07:27:35;;;;;;;55.93;31.40;;;;;;;2.07;90.67;99638.34;1733351;81;21599;-77
2022/11/23 07:30:02;;;;;;;55.83;32.13;;;;;;;2.09;90.69;99639.63;1727280;81;20921;-76
2022/11/23 07:32:30;;;;;;;55.70;31.43;;;;;;;2.14;90.75;99639.98;1739789;81;21031;-80
2022/11/23 07:34:57;;;;;;;55.20;31.80;;;;;;;2.18;90.76;99644.66;1727962;81;21469;-77
2022/11/23 07:37:25;;;;;;;57.07;32.40;;;;;;;2.23;90.76;99650.17;1736611;81;21091;-78
2022/11/23 07:39:52;;;;;;;54.70;32.20;;;;;;;2.28;90.80;99648.82;1725885;82;21049;-73
2022/11/23 07:42:19;;;;;;;56.70;32.37;;;;;;;2.34;90.85;99651.75;1721524;83;21462;-74
2022/11/23 07:44:48;;;;;;;57.97;32.70;;;;;;;2.37;90.59;99652.55;1722527;83;21636;-82
2022/11/23 07:47:15;;;;;;;53.83;32.13;;;;;;;2.36;90.44;99658.61;1737110;81;21023;-75
2022/11/23 07:49:42;;;;;;;54.40;31.83;;;;;;;2.41;90.61;99658.10;1755392;81;21003;-78
2022/11/23 07:52:09;;;;;;;50.20;30.03;;;;;;;2.45;90.50;99664.08;1740496;81;21136;-75
2022/11/23 07:54:36;;;;;;;52.57;31.73;;;;;;;2.46;90.46;99655.42;1724026;82;21028;-75
2022/11/23 07:57:03;;;;;;;49.13;29.03;;;;;;;2.51;90.77;99657.95;1726311;81;21558;-74
2022/11/23 07:59:30;;;;;;;50.73;29.67;;;;;;;2.58;90.74;99668.18;1724057;82;21012;-74
2022/11/23 08:01:57;;;;;;;52.90;29.87;;;;;;;2.63;90.86;99664.20;1723856;82;21054;-74
2022/11/23 08:04:25;;;;;;;50.30;29.90;;;;;;;2.67;90.58;99664.58;1722956;82;21109;-75
2022/11/23 08:06:54;;;;;;;45.57;29.40;;;;;;;2.68;90.48;99667.13;1727055;81;20943;-74
2022/11/23 08:09:21;;;;;;;48.23;29.27;;;;;;;2.72;90.52;99664.52;1744977;81;21031;-74
2022/11/23 08:11:48;;;;;;;45.77;29.07;;;;;;;2.74;90.33;99667.47;1728589;82;21032;-74
2022/11/23 08:14:15;;;;;;;48.73;29.57;;;;;;;2.76;90.26;99668.30;1727413;83;21042;-75
2022/11/23 08:16:42;;;;;;;52.03;30.43;;;;;;;2.76;90.02;99666.16;1726991;81;21067;-75
2022/11/23 08:19:09;;;;;;;52.27;29.93;;;;;;;2.73;89.88;99664.92;1726117;82;21027;-75
2022/11/23 08:21:36;;;;;;;50.43;30.40;;;;;;;2.77;90.36;99662.68;1724610;82;21071;-75
2022/11/23 08:24:04;;;;;;;55.13;31.37;;;;;;;2.80;90.16;99663.92;1726389;82;21588;-76
2022/11/23 08:26:31;;;;;;;54.03;30.67;;;;;;;2.79;90.03;99661.78;1722738;81;21023;-78
2022/11/23 08:28:58;;;;;;;53.73;32.43;;;;;;;2.82;90.13;99664.31;1729432;82;21825;-76
2022/11/23 08:31:25;;;;;;;58.30;33.17;;;;;;;2.85;89.96;99664.70;1723457;82;21023;-75
2022/11/23 08:33:52;;;;;;;54.40;31.40;;;;;;;2.86;89.98;99663.84;1726723;81;21042;-76
2022/11/23 08:36:20;;;;;;;52.93;31.30;;;;;;;2.89;90.01;99660.74;1724990;82;21549;-77
2022/11/23 08:38:50;;;;;;;50.70;31.50;;;;;;;2.89;89.78;99662.48;1727110;83;21038;-78
2022/11/23 08:41:19;;;;;;;58.80;34.67;;;;;;;2.89;89.90;99660.74;1726752;83;21073;-77
2022/11/23 08:43:45;;;;;;;68.90;38.80;;;;;;;2.95;90.05;99667.99;1726821;83;21043;-77
2022/11/23 08:46:12;;;;;;;116.43;57.13;;;;;;;3.01;90.07;99666.14;1720851;82;21004;-77
2022/11/23 08:48:39;;;;;;;107.57;55.17;;;;;;;3.02;89.93;99664.39;1754346;81;21050;-78
2022/11/23 08:51:07;;;;;;;114.53;59.87;;;;;;;3.09;90.19;99662.97;1738122;80;21488;-78
2022/11/23 08:53:36;;;;;;;107.77;58.13;;;;;;;3.13;90.05;99660.75;1726920;81;21594;-77
2022/11/23 08:56:13;;;;;;;108.40;59.33;;;;;;;3.15;89.82;99664.59;1727765;82;21574;-77
2022/11/23 08:58:41;;;;;;;66.57;40.27;;;;;;;3.19;89.95;99661.08;1747616;81;21015;-77
2022/11/23 09:01:13;;;;;;;60.87;35.20;;;;;;;3.21;89.64;99663.17;1730279;82;21059;-76
2022/11/23 09:03:41;;;;;;;57.63;35.47;;;;;;;3.22;89.79;99660.17;1732318;82;21034;-76
2022/11/23 09:06:09;;;;;;;57.17;33.47;;;;;;;3.32;90.00;99668.16;1752593;81;21184;-77
2022/11/23 09:08:36;;;;;;;54.87;33.33;;;;;;;3.34;89.80;99668.98;1733197;82;21018;-77
2022/11/23 09:11:08;;;;;;;53.13;32.90;;;;;;;3.40;90.06;99662.38;1733383;82;21066;-77
2022/11/23 09:13:37;;;;;;;56.17;32.43;;;;;;;3.46;90.00;99665.30;1733292;82;20983;-77
2022/11/23 09:16:05;;;;;;;55.43;32.70;;;;;;;3.52;89.94;99663.45;1733134;82;21030;-76
2022/11/23 09:18:34;;;;;;;54.10;33.33;;;;;;;3.57;89.73;99661.62;1732881;82;21035;-77
2022/11/23 09:21:04;;;;;;;57.67;32.90;;;;;;;3.60;89.68;99669.75;1728102;82;21041;-75
2022/11/23 09:23:31;;;;;;;54.88;33.70;;;;;;;3.58;89.55;99662.03;1733473;82;21003;-76
2022/11/23 09:26:00;;;;;;;57.00;34.57;;;;;;;3.64;89.70;99663.64;1733351;82;22189;-76
2022/11/23 09:28:28;;;;;;;55.33;32.90;;;;;;;3.67;89.48;99658.39;1732808;82;21007;-76
2022/11/23 09:30:56;;;;;;;56.10;33.17;;;;;;;3.68;89.72;99654.91;1737274;81;21104;-76
2022/11/23 09:33:25;;;;;;;54.70;32.87;;;;;;;3.74;89.73;99657.39;1733155;82;21004;-76
2022/11/23 09:36:02;;;;;;;57.33;34.37;;;;;;;3.78;89.56;99656.88;1733451;82;21542;-76
2022/11/23 09:38:29;;;;;;;59.00;34.83;;;;;;;3.81;89.91;99658.10;1719202;82;21090;-77
2022/11/23 09:41:55;;;;;;;55.97;34.50;;;;;;;3.87;89.90;99651.48;1733552;82;21038;-76
2022/11/23 09:45:07;;;;;;;53.17;33.77;;;;;;;3.91;89.73;99651.00;1714663;82;22020;-77
2022/11/23 09:48:13;;;;;;;58.17;32.80;;;;;;;3.90;89.53;99647.97;1688212;84;21175;-77
2022/11/23 09:50:51;;;;;;;57.57;34.67;;;;;;;3.98;89.85;99649.95;1678682;84;21035;-77
2022/11/23 09:53:46;;;;;;;60.53;34.67;;;;;;;3.99;89.59;99655.54;1685489;85;21043;-77
2022/11/23 09:56:20;;;;;;;60.73;35.43;;;;;;;3.98;89.39;99652.55;1681683;85;21059;-77
2022/11/23 09:58:58;;;;;;;57.13;35.50;;;;;;;3.98;89.57;99648.21;1685557;85;21191;-77
2022/11/23 10:01:31;;;;;;;58.17;35.97;;;;;;;4.03;89.66;99643.78;1685554;85;21055;-77
2022/11/23 10:03:58;;;;;;;63.50;35.13;;;;;;;4.06;89.50;99642.86;1685383;85;21047;-76
2022/11/23 10:06:30;;;;;;;58.20;35.43;;;;;;;4.09;89.57;99645.38;1686580;83;21020;-76
2022/11/23 10:09:20;;;;;;;60.50;36.03;;;;;;;4.14;89.41;99642.70;1685156;85;21047;-76
2022/11/23 10:12:03;;;;;;;60.30;36.75;;;;;;;4.17;89.58;99642.62;1684779;83;21152;-75
2022/11/23 10:14:41;;;;;;;59.03;36.17;;;;;;;4.23;89.47;99643.31;1684999;83;21049;-75
2022/11/23 10:17:25;;;;;;;62.10;36.77;;;;;;;4.26;89.30;99639.80;1680876;85;21033;-75
2022/11/23 10:20:03;;;;;;;75.63;41.60;;;;;;;4.31;89.49;99629.33;1706344;81;21102;-75
2022/11/23 10:22:38;;;;;;;63.83;36.90;;;;;;;4.37;89.48;99636.50;1717942;82;21015;-76
2022/11/23 10:25:11;;;;;;;62.03;37.47;;;;;;;4.40;89.39;99629.09;1707008;81;21739;-76
2022/11/23 10:27:38;;;;;;;57.67;35.43;;;;;;;4.45;89.33;99629.39;1724351;81;21031;-75
2022/11/23 10:30:15;;;;;;;66.17;40.27;;;;;;;4.50;89.46;99627.99;1726454;82;21078;-76
2022/11/23 10:32:53;;;;;;;63.83;38.83;;;;;;;4.51;89.17;99621.05;1717764;82;20941;-76
2022/11/23 10:35:33;;;;;;;76.23;44.20;;;;;;;4.48;88.89;99621.98;1724234;82;22037;-76
2022/11/23 10:38:19;;;;;;;81.53;46.77;;;;;;;4.50;89.30;99621.95;1723822;82;21139;-75
2022/11/23 10:41:08;;;;;;;169.43;74.23;;;;;;;4.52;89.10;99618.44;1735964;81;21063;-75
2022/11/23 10:43:56;;;;;;;99.65;49.10;;;;;;;4.54;89.10;99615.78;1737086;82;21035;-75
2022/11/23 10:46:38;;;;;;;158.13;72.00;;;;;;;4.60;89.25;99618.22;1736920;81;21003;-75
2022/11/23 10:49:26;;;;;;;83.40;44.90;;;;;;;4.57;88.78;99609.22;1719399;82;21060;-76
2022/11/23 10:52:04;;;;;;;62.97;36.37;;;;;;;4.52;88.92;99604.16;1721911;81;21450;-76
2022/11/23 10:54:40;;;;;;;60.87;38.53;;;;;;;4.53;88.94;99605.01;1731439;82;20987;-77
2022/11/23 10:57:32;;;;;;;134.10;70.50;;;;;;;4.55;89.11;99603.23;1725084;82;21030;-76
2022/11/23 11:00:11;;;;;;;65.23;37.30;;;;;;;4.57;89.16;99602.31;1726813;81;21019;-75
2022/11/23 11:02:56;;;;;;;76.13;44.93;;;;;;;4.63;89.15;99599.55;1730707;82;21020;-76
2022/11/23 11:05:36;;;;;;;63.00;38.33;;;;;;;4.68;89.32;99601.59;1753299;81;21011;-76
2022/11/23 11:08:17;;;;;;;77.50;45.63;;;;;;;4.74;89.17;99599.28;1732569;82;21019;-77
2022/11/23 11:10:51;;;;;;;65.57;38.93;;;;;;;4.76;88.91;99598.77;1723564;82;21349;-77
2022/11/23 11:13:41;;;;;;;63.80;39.10;;;;;;;4.72;88.60;99598.45;1724085;82;21020;-77
2022/11/23 11:16:31;;;;;;;65.40;39.25;;;;;;;4.74;88.86;99592.79;1729706;82;21082;-78
2022/11/23 11:19:20;;;;;;;96.45;51.30;;;;;;;4.80;88.85;99590.02;1743466;81;21147;-77
2022/11/23 11:21:47;;;;;;;137.70;63.30;;;;;;;4.84;88.71;99586.89;1731300;81;21011;-77
2022/11/23 11:24:19;;;;;;;86.63;45.20;;;;;;;4.88;88.74;99582.88;1724109;82;21011;-77
2022/11/23 11:26:59;;;;;;;156.00;68.67;;;;;;;4.91;88.46;99582.80;1732680;81;21059;-77
2022/11/23 11:29:34;;;;;;;137.97;64.17;;;;;;;4.99;88.73;99583.02;1725839;82;21516;-77
2022/11/23 11:32:18;;;;;;;193.40;85.00;;;;;;;5.05;88.52;99580.28;1730884;81;21064;-76
2022/11/23 11:34:53;;;;;;;125.40;60.63;;;;;;;5.06;88.23;99577.62;1645256;86;21027;-76
2022/11/23 11:37:43;;;;;;;80.23;45.33;;;;;;;5.12;88.42;99576.59;1660844;86;21555;-76
2022/11/23 11:40:24;;;;;;;99.58;52.00;;;;;;;5.12;88.11;99572.25;1659736;86;21143;-76
2022/11/23 11:43:11;;;;;;;70.10;41.80;;;;;;;5.13;88.00;99575.72;1659796;86;21035;-76